createdAt,value
2024-01-16T00:11:13.174Z,24
2024-01-16T00:40:13.781Z,22
2024-01-16T01:09:19.637Z,21
2024-01-16T01:38:33.931Z,21
2024-01-16T02:07:40.070Z,26
2024-01-16T02:36:49.111Z,21
2024-01-16T03:05:57.902Z,24
2024-01-16T03:34:51.050Z,22
2024-01-16T04:04:06.608Z,25
2024-01-16T04:33:05.209Z,24
2024-01-16T05:02:06.502Z,22
2024-01-16T05:31:09.820Z,22
2024-01-16T06:00:18.920Z,22
2024-01-16T06:29:31.978Z,26
2024-01-16T06:58:12.778Z,21
2024-01-16T07:27:17.291Z,20
2024-01-16T07:56:28.158Z,23
2024-01-16T08:25:38.953Z,20
2024-01-16T08:54:47.820Z,22
2024-01-16T09:23:58.915Z,21
2024-01-16T09:53:05.999Z,21
2024-01-16T10:22:18.709Z,27
2024-01-16T10:51:07.181Z,28
2024-01-16T11:21:34.533Z,25
2024-01-16T11:50:15.327Z,28
2024-01-16T12:19:40.783Z,28
2024-01-16T12:48:50.704Z,26
2024-01-16T13:17:34.968Z,23
2024-01-16T13:47:47.405Z,28
2024-01-16T14:16:32.211Z,25
2024-01-16T14:45:04.716Z,26
2024-01-16T15:14:02.418Z,28
2024-01-16T15:43:10.352Z,29
2024-01-16T16:12:18.873Z,35
2024-01-16T16:41:05.560Z,36
2024-01-16T17:10:04.185Z,37
2024-01-16T17:39:02.782Z,41
2024-01-16T18:07:49.238Z,42
2024-01-16T18:36:54.946Z,36
2024-01-16T19:05:55.008Z,38
2024-01-16T19:35:00.309Z,30
2024-01-16T20:04:06.003Z,30
2024-01-16T20:33:11.116Z,32
2024-01-16T21:02:13.259Z,25
2024-01-16T21:31:16.057Z,27
2024-01-16T22:00:20.560Z,25
2024-01-16T22:29:28.707Z,25
2024-01-16T22:58:35.828Z,35
2024-01-16T23:27:35.312Z,25
2024-01-16T23:56:41.795Z,34
